Lopez, Pennsylvania
Current Conditions -  °F | °C
As of 3:54 AM on Friday 19 Dec 2014 (Local Time) from KAVP Reporting Station
Light Snow Light Snow  
Wind Chill: 24°   Ceiling: 1800
Heat Index: 33°   Visibility: 7mi
Dew Point: 26°   Wind: 13mph
Humidity: 75%   Direction: 310°NW
Pressure: 29.97"   Gusts: NA
Location:  41.46°N, 76.33°W
Report Text: KAVP 190854Z AUTO 31011KT 7SM -SN BKN018 BKN023 OVC029 01/M03 A2997 RMK AO2 UPB31E49SNB49 SLP157 P0000 60000 T00061033 50000
Loading
Personal Weather Stations






























Interactive Weather Map New forecast layout! Learn more

10-Day Weather Forecast

Advertisements
Track Severe Weather on mobile